sensor_id;sensor_type;location;lat;lon;timestamp;P1;durP1;ratioP1;P2;durP2;ratioP2
21120;SDS011;12519;43.318;21.898;2022-11-24T00:01:55;10.0;;;10.0;;
21120;SDS011;12519;43.318;21.898;2022-11-24T00:06:35;10.0;;;10.0;;
21120;SDS011;12519;43.318;21.898;2022-11-24T00:11:17;10.0;;;9.0;;
21120;SDS011;12519;43.318;21.898;2022-11-24T00:16:10;10.0;;;9.0;;
21120;SDS011;12519;43.318;21.898;2022-11-24T00:20:55;10.0;;;9.0;;
21120;SDS011;12519;43.318;21.898;2022-11-24T00:25:32;10.0;;;9.0;;
21120;SDS011;12519;43.318;21.898;2022-11-24T00:30:11;10.0;;;9.0;;
21120;SDS011;12519;43.318;21.898;2022-11-24T00:34:49;10.0;;;9.0;;
21120;SDS011;12519;43.318;21.898;2022-11-24T00:39:26;9.0;;;8.0;;
21120;SDS011;12519;43.318;21.898;2022-11-24T00:44:04;9.0;;;8.0;;
21120;SDS011;12519;43.318;21.898;2022-11-24T00:48:43;9.0;;;8.0;;
21120;SDS011;12519;43.318;21.898;2022-11-24T00:53:20;8.0;;;7.0;;
21120;SDS011;12519;43.318;21.898;2022-11-24T00:57:56;8.0;;;7.0;;
21120;SDS011;12519;43.318;21.898;2022-11-24T01:02:33;7.0;;;6.0;;
21120;SDS011;12519;43.318;21.898;2022-11-24T01:07:09;7.0;;;6.0;;
21120;SDS011;12519;43.318;21.898;2022-11-24T01:11:46;6.0;;;5.0;;
21120;SDS011;12519;43.318;21.898;2022-11-24T01:16:28;6.0;;;5.0;;
21120;SDS011;12519;43.318;21.898;2022-11-24T01:21:09;6.0;;;6.0;;
21120;SDS011;12519;43.318;21.898;2022-11-24T01:25:46;6.0;;;6.0;;
21120;SDS011;12519;43.318;21.898;2022-11-24T01:30:23;6.0;;;6.0;;
21120;SDS011;12519;43.318;21.898;2022-11-24T01:34:59;6.0;;;6.0;;
21120;SDS011;12519;43.318;21.898;2022-11-24T01:39:37;6.0;;;6.0;;
21120;SDS011;12519;43.318;21.898;2022-11-24T01:44:31;6.0;;;6.0;;
21120;SDS011;12519;43.318;21.898;2022-11-24T01:49:17;6.0;;;6.0;;
21120;SDS011;12519;43.318;21.898;2022-11-24T01:54:22;6.0;;;6.0;;
21120;SDS011;12519;43.318;21.898;2022-11-24T01:59:14;6.0;;;6.0;;
21120;SDS011;12519;43.318;21.898;2022-11-24T02:04:02;6.0;;;6.0;;
21120;SDS011;12519;43.318;21.898;2022-11-24T02:08:57;6.0;;;6.0;;
21120;SDS011;12519;43.318;21.898;2022-11-24T02:13:42;6.0;;;5.0;;
21120;SDS011;12519;43.318;21.898;2022-11-24T02:18:22;6.0;;;5.0;;
21120;SDS011;12519;43.318;21.898;2022-11-24T02:23:14;6.0;;;6.0;;
21120;SDS011;12519;43.318;21.898;2022-11-24T02:28:07;6.0;;;6.0;;
21120;SDS011;12519;43.318;21.898;2022-11-24T02:32:51;6.0;;;6.0;;
21120;SDS011;12519;43.318;21.898;2022-11-24T02:37:28;6.0;;;6.0;;
21120;SDS011;12519;43.318;21.898;2022-11-24T02:42:12;6.0;;;6.0;;
21120;SDS011;12519;43.318;21.898;2022-11-24T02:46:49;6.0;;;6.0;;
21120;SDS011;12519;43.318;21.898;2022-11-24T02:51:40;6.0;;;5.0;;
21120;SDS011;12519;43.318;21.898;2022-11-24T02:56:17;6.0;;;5.0;;
21120;SDS011;12519;43.318;21.898;2022-11-24T03:00:54;6.0;;;6.0;;
21120;SDS011;12519;43.318;21.898;2022-11-24T03:05:31;6.0;;;6.0;;
21120;SDS011;12519;43.318;21.898;2022-11-24T03:10:09;6.0;;;6.0;;
21120;SDS011;12519;43.318;21.898;2022-11-24T03:14:46;6.0;;;6.0;;
21120;SDS011;12519;43.318;21.898;2022-11-24T03:19:23;6.0;;;6.0;;
21120;SDS011;12519;43.318;21.898;2022-11-24T03:24:00;6.0;;;6.0;;
21120;SDS011;12519;43.318;21.898;2022-11-24T03:28:37;6.0;;;6.0;;
21120;SDS011;12519;43.318;21.898;2022-11-24T03:33:14;6.0;;;5.0;;
21120;SDS011;12519;43.318;21.898;2022-11-24T03:37:51;6.0;;;5.0;;
21120;SDS011;12519;43.318;21.898;2022-11-24T03:42:28;6.0;;;5.0;;
21120;SDS011;12519;43.318;21.898;2022-11-24T03:47:04;6.0;;;5.0;;
21120;SDS011;12519;43.318;21.898;2022-11-24T03:51:40;6.0;;;5.0;;
21120;SDS011;12519;43.318;21.898;2022-11-24T03:56:17;6.0;;;5.0;;
21120;SDS011;12519;43.318;21.898;2022-11-24T04:00:55;6.0;;;5.0;;
21120;SDS011;12519;43.318;21.898;2022-11-24T04:05:32;6.0;;;5.0;;
21120;SDS011;12519;43.318;21.898;2022-11-24T04:10:10;5.0;;;5.0;;
21120;SDS011;12519;43.318;21.898;2022-11-24T04:14:46;5.0;;;5.0;;
21120;SDS011;12519;43.318;21.898;2022-11-24T04:19:23;5.0;;;5.0;;
21120;SDS011;12519;43.318;21.898;2022-11-24T04:23:59;5.0;;;5.0;;
21120;SDS011;12519;43.318;21.898;2022-11-24T04:28:36;5.0;;;5.0;;
21120;SDS011;12519;43.318;21.898;2022-11-24T04:33:12;5.0;;;5.0;;
21120;SDS011;12519;43.318;21.898;2022-11-24T04:37:49;5.0;;;5.0;;
21120;SDS011;12519;43.318;21.898;2022-11-24T04:42:26;4.0;;;4.0;;
21120;SDS011;12519;43.318;21.898;2022-11-24T04:47:03;4.0;;;4.0;;
21120;SDS011;12519;43.318;21.898;2022-11-24T04:51:40;4.0;;;3.0;;
21120;SDS011;12519;43.318;21.898;2022-11-24T04:56:17;4.0;;;3.0;;
21120;SDS011;12519;43.318;21.898;2022-11-24T05:00:53;4.0;;;3.0;;
21120;SDS011;12519;43.318;21.898;2022-11-24T05:05:30;4.0;;;3.0;;
21120;SDS011;12519;43.318;21.898;2022-11-24T05:10:08;4.0;;;3.0;;
21120;SDS011;12519;43.318;21.898;2022-11-24T05:14:45;4.0;;;3.0;;
21120;SDS011;12519;43.318;21.898;2022-11-24T05:19:22;4.0;;;3.0;;
21120;SDS011;12519;43.318;21.898;2022-11-24T05:23:58;5.0;;;4.0;;
21120;SDS011;12519;43.318;21.898;2022-11-24T05:28:35;5.0;;;4.0;;
21120;SDS011;12519;43.318;21.898;2022-11-24T05:33:16;6.0;;;6.0;;
21120;SDS011;12519;43.318;21.898;2022-11-24T05:37:53;6.0;;;6.0;;
21120;SDS011;12519;43.318;21.898;2022-11-24T05:42:30;8.0;;;7.0;;
21120;SDS011;12519;43.318;21.898;2022-11-24T05:47:06;8.0;;;7.0;;
21120;SDS011;12519;43.318;21.898;2022-11-24T05:51:43;9.0;;;8.0;;
21120;SDS011;12519;43.318;21.898;2022-11-24T05:56:20;9.0;;;8.0;;
21120;SDS011;12519;43.318;21.898;2022-11-24T06:00:56;12.0;;;9.0;;
21120;SDS011;12519;43.318;21.898;2022-11-24T06:05:33;12.0;;;9.0;;
21120;SDS011;12519;43.318;21.898;2022-11-24T06:10:09;14.0;;;10.0;;
21120;SDS011;12519;43.318;21.898;2022-11-24T06:14:45;14.0;;;10.0;;
21120;SDS011;12519;43.318;21.898;2022-11-24T06:19:21;14.0;;;10.0;;
21120;SDS011;12519;43.318;21.898;2022-11-24T06:23:58;11.0;;;8.0;;
21120;SDS011;12519;43.318;21.898;2022-11-24T06:28:35;11.0;;;8.0;;
21120;SDS011;12519;43.318;21.898;2022-11-24T06:33:11;8.0;;;7.0;;
21120;SDS011;12519;43.318;21.898;2022-11-24T06:37:47;8.0;;;7.0;;
21120;SDS011;12519;43.318;21.898;2022-11-24T06:42:23;10.0;;;10.0;;
21120;SDS011;12519;43.318;21.898;2022-11-24T06:46:59;10.0;;;10.0;;
21120;SDS011;12519;43.318;21.898;2022-11-24T06:51:36;13.0;;;12.0;;
21120;SDS011;12519;43.318;21.898;2022-11-24T06:56:19;13.0;;;12.0;;
21120;SDS011;12519;43.318;21.898;2022-11-24T07:00:57;11.0;;;10.0;;
21120;SDS011;12519;43.318;21.898;2022-11-24T07:05:34;11.0;;;10.0;;
21120;SDS011;12519;43.318;21.898;2022-11-24T07:10:10;11.0;;;10.0;;
21120;SDS011;12519;43.318;21.898;2022-11-24T07:14:47;9.0;;;7.0;;
21120;SDS011;12519;43.318;21.898;2022-11-24T07:19:24;9.0;;;7.0;;
21120;SDS011;12519;43.318;21.898;2022-11-24T07:24:01;8.0;;;7.0;;
21120;SDS011;12519;43.318;21.898;2022-11-24T07:28:37;8.0;;;7.0;;
21120;SDS011;12519;43.318;21.898;2022-11-24T07:33:13;7.0;;;7.0;;
21120;SDS011;12519;43.318;21.898;2022-11-24T07:37:53;7.0;;;7.0;;
21120;SDS011;12519;43.318;21.898;2022-11-24T07:42:30;10.0;;;7.0;;
21120;SDS011;12519;43.318;21.898;2022-11-24T07:47:07;10.0;;;7.0;;
21120;SDS011;12519;43.318;21.898;2022-11-24T07:51:43;12.0;;;7.0;;
21120;SDS011;12519;43.318;21.898;2022-11-24T07:56:20;12.0;;;7.0;;
21120;SDS011;12519;43.318;21.898;2022-11-24T08:00:58;12.0;;;9.0;;
21120;SDS011;12519;43.318;21.898;2022-11-24T08:05:53;12.0;;;9.0;;
21120;SDS011;12519;43.318;21.898;2022-11-24T08:10:33;11.0;;;11.0;;
21120;SDS011;12519;43.318;21.898;2022-11-24T08:15:10;11.0;;;11.0;;
21120;SDS011;12519;43.318;21.898;2022-11-24T08:19:47;11.0;;;11.0;;
21120;SDS011;12519;43.318;21.898;2022-11-24T08:24:23;11.0;;;11.0;;
21120;SDS011;12519;43.318;21.898;2022-11-24T08:29:01;11.0;;;11.0;;
21120;SDS011;12519;43.318;21.898;2022-11-24T08:33:41;11.0;;;11.0;;
21120;SDS011;12519;43.318;21.898;2022-11-24T08:38:18;11.0;;;11.0;;
21120;SDS011;12519;43.318;21.898;2022-11-24T08:42:56;12.0;;;12.0;;
21120;SDS011;12519;43.318;21.898;2022-11-24T08:47:33;12.0;;;12.0;;
21120;SDS011;12519;43.318;21.898;2022-11-24T08:52:09;13.0;;;12.0;;
21120;SDS011;12519;43.318;21.898;2022-11-24T08:56:48;13.0;;;12.0;;
21120;SDS011;12519;43.318;21.898;2022-11-24T09:01:26;10.0;;;10.0;;
21120;SDS011;12519;43.318;21.898;2022-11-24T09:06:05;10.0;;;10.0;;
21120;SDS011;12519;43.318;21.898;2022-11-24T09:10:43;8.0;;;8.0;;
21120;SDS011;12519;43.318;21.898;2022-11-24T09:15:19;8.0;;;8.0;;
21120;SDS011;12519;43.318;21.898;2022-11-24T09:19:55;8.0;;;8.0;;
21120;SDS011;12519;43.318;21.898;2022-11-24T09:24:32;12.0;;;10.0;;
21120;SDS011;12519;43.318;21.898;2022-11-24T09:29:09;12.0;;;10.0;;
21120;SDS011;12519;43.318;21.898;2022-11-24T09:33:47;15.0;;;12.0;;
21120;SDS011;12519;43.318;21.898;2022-11-24T09:38:24;15.0;;;12.0;;
21120;SDS011;12519;43.318;21.898;2022-11-24T09:43:16;15.0;;;12.0;;
21120;SDS011;12519;43.318;21.898;2022-11-24T09:48:28;15.0;;;12.0;;
21120;SDS011;12519;43.318;21.898;2022-11-24T09:53:35;15.0;;;13.0;;
21120;SDS011;12519;43.318;21.898;2022-11-24T09:58:42;15.0;;;13.0;;
21120;SDS011;12519;43.318;21.898;2022-11-24T10:03:35;14.0;;;12.0;;
21120;SDS011;12519;43.318;21.898;2022-11-24T10:08:44;14.0;;;12.0;;
21120;SDS011;12519;43.318;21.898;2022-11-24T10:14:57;12.0;;;11.0;;
21120;SDS011;12519;43.318;21.898;2022-11-24T10:20:04;12.0;;;11.0;;
21120;SDS011;12519;43.318;21.898;2022-11-24T10:25:14;14.0;;;12.0;;
21120;SDS011;12519;43.318;21.898;2022-11-24T10:30:00;14.0;;;12.0;;
21120;SDS011;12519;43.318;21.898;2022-11-24T10:34:50;15.0;;;14.0;;
21120;SDS011;12519;43.318;21.898;2022-11-24T10:39:58;15.0;;;14.0;;
21120;SDS011;12519;43.318;21.898;2022-11-24T10:45:16;14.0;;;12.0;;
21120;SDS011;12519;43.318;21.898;2022-11-24T10:50:19;14.0;;;12.0;;
21120;SDS011;12519;43.318;21.898;2022-11-24T10:55:05;14.0;;;10.0;;
21120;SDS011;12519;43.318;21.898;2022-11-24T10:59:44;14.0;;;10.0;;
21120;SDS011;12519;43.318;21.898;2022-11-24T11:04:28;12.0;;;9.0;;
21120;SDS011;12519;43.318;21.898;2022-11-24T11:09:20;12.0;;;9.0;;
21120;SDS011;12519;43.318;21.898;2022-11-24T11:14:02;9.0;;;8.0;;
21120;SDS011;12519;43.318;21.898;2022-11-24T11:18:48;9.0;;;8.0;;
21120;SDS011;12519;43.318;21.898;2022-11-24T11:23:34;9.0;;;8.0;;
21120;SDS011;12519;43.318;21.898;2022-11-24T11:28:27;9.0;;;8.0;;
21120;SDS011;12519;43.318;21.898;2022-11-24T11:33:23;9.0;;;8.0;;
21120;SDS011;12519;43.318;21.898;2022-11-24T11:38:06;9.0;;;8.0;;
21120;SDS011;12519;43.318;21.898;2022-11-24T11:42:56;8.0;;;8.0;;
21120;SDS011;12519;43.318;21.898;2022-11-24T11:47:47;8.0;;;8.0;;
21120;SDS011;12519;43.318;21.898;2022-11-24T11:53:02;8.0;;;8.0;;
21120;SDS011;12519;43.318;21.898;2022-11-24T11:58:46;8.0;;;8.0;;
21120;SDS011;12519;43.318;21.898;2022-11-24T12:04:20;8.0;;;8.0;;
21120;SDS011;12519;43.318;21.898;2022-11-24T12:09:52;8.0;;;8.0;;
21120;SDS011;12519;43.318;21.898;2022-11-24T12:15:13;9.0;;;7.0;;
21120;SDS011;12519;43.318;21.898;2022-11-24T12:20:43;9.0;;;7.0;;
21120;SDS011;12519;43.318;21.898;2022-11-24T12:26:08;9.0;;;8.0;;
21120;SDS011;12519;43.318;21.898;2022-11-24T12:31:34;9.0;;;8.0;;
21120;SDS011;12519;43.318;21.898;2022-11-24T12:37:17;9.0;;;8.0;;
21120;SDS011;12519;43.318;21.898;2022-11-24T12:42:44;11.0;;;10.0;;
21120;SDS011;12519;43.318;21.898;2022-11-24T12:48:04;11.0;;;10.0;;
21120;SDS011;12519;43.318;21.898;2022-11-24T12:53:12;13.0;;;11.0;;
21120;SDS011;12519;43.318;21.898;2022-11-24T12:58:09;13.0;;;11.0;;
21120;SDS011;12519;43.318;21.898;2022-11-24T13:03:28;12.0;;;10.0;;
21120;SDS011;12519;43.318;21.898;2022-11-24T13:08:20;12.0;;;10.0;;
21120;SDS011;12519;43.318;21.898;2022-11-24T13:13:02;10.0;;;9.0;;
21120;SDS011;12519;43.318;21.898;2022-11-24T13:17:43;10.0;;;9.0;;
21120;SDS011;12519;43.318;21.898;2022-11-24T13:22:24;11.0;;;10.0;;
21120;SDS011;12519;43.318;21.898;2022-11-24T13:27:40;11.0;;;10.0;;
21120;SDS011;12519;43.318;21.898;2022-11-24T13:33:02;12.0;;;11.0;;
21120;SDS011;12519;43.318;21.898;2022-11-24T13:38:50;12.0;;;11.0;;
21120;SDS011;12519;43.318;21.898;2022-11-24T13:43:29;11.0;;;10.0;;
21120;SDS011;12519;43.318;21.898;2022-11-24T13:48:58;11.0;;;10.0;;
21120;SDS011;12519;43.318;21.898;2022-11-24T13:53:43;10.0;;;9.0;;
21120;SDS011;12519;43.318;21.898;2022-11-24T13:58:35;10.0;;;9.0;;
21120;SDS011;12519;43.318;21.898;2022-11-24T14:03:28;12.0;;;10.0;;
21120;SDS011;12519;43.318;21.898;2022-11-24T14:08:28;12.0;;;10.0;;
21120;SDS011;12519;43.318;21.898;2022-11-24T14:13:26;15.0;;;12.0;;
21120;SDS011;12519;43.318;21.898;2022-11-24T14:18:20;15.0;;;12.0;;
21120;SDS011;12519;43.318;21.898;2022-11-24T14:22:57;14.0;;;12.0;;
21120;SDS011;12519;43.318;21.898;2022-11-24T14:27:37;14.0;;;12.0;;
21120;SDS011;12519;43.318;21.898;2022-11-24T14:32:15;12.0;;;11.0;;
21120;SDS011;12519;43.318;21.898;2022-11-24T14:36:55;12.0;;;11.0;;
21120;SDS011;12519;43.318;21.898;2022-11-24T14:41:35;14.0;;;11.0;;
21120;SDS011;12519;43.318;21.898;2022-11-24T14:46:19;14.0;;;11.0;;
21120;SDS011;12519;43.318;21.898;2022-11-24T14:51:12;14.0;;;11.0;;
21120;SDS011;12519;43.318;21.898;2022-11-24T14:56:31;15.0;;;11.0;;
21120;SDS011;12519;43.318;21.898;2022-11-24T15:01:30;16.0;;;13.0;;
21120;SDS011;12519;43.318;21.898;2022-11-24T15:06:19;16.0;;;13.0;;
21120;SDS011;12519;43.318;21.898;2022-11-24T15:11:01;16.0;;;13.0;;
21120;SDS011;12519;43.318;21.898;2022-11-24T15:15:53;18.0;;;15.0;;
21120;SDS011;12519;43.318;21.898;2022-11-24T15:20:45;18.0;;;15.0;;
21120;SDS011;12519;43.318;21.898;2022-11-24T15:25:31;17.0;;;15.0;;
21120;SDS011;12519;43.318;21.898;2022-11-24T15:30:12;17.0;;;15.0;;
21120;SDS011;12519;43.318;21.898;2022-11-24T15:34:48;16.0;;;15.0;;
21120;SDS011;12519;43.318;21.898;2022-11-24T15:39:24;16.0;;;15.0;;
21120;SDS011;12519;43.318;21.898;2022-11-24T15:44:01;28.0;;;22.0;;
21120;SDS011;12519;43.318;21.898;2022-11-24T15:48:38;28.0;;;22.0;;
21120;SDS011;12519;43.318;21.898;2022-11-24T15:53:21;41.0;;;30.0;;
21120;SDS011;12519;43.318;21.898;2022-11-24T15:58:11;41.0;;;30.0;;
21120;SDS011;12519;43.318;21.898;2022-11-24T16:02:50;35.0;;;28.0;;
21120;SDS011;12519;43.318;21.898;2022-11-24T16:07:26;35.0;;;28.0;;
21120;SDS011;12519;43.318;21.898;2022-11-24T16:12:05;29.0;;;25.0;;
21120;SDS011;12519;43.318;21.898;2022-11-24T16:16:43;29.0;;;25.0;;
21120;SDS011;12519;43.318;21.898;2022-11-24T16:21:20;29.0;;;25.0;;
21120;SDS011;12519;43.318;21.898;2022-11-24T16:25:57;26.0;;;22.0;;
21120;SDS011;12519;43.318;21.898;2022-11-24T16:30:34;26.0;;;22.0;;
21120;SDS011;12519;43.318;21.898;2022-11-24T16:35:10;24.0;;;20.0;;
21120;SDS011;12519;43.318;21.898;2022-11-24T16:39:47;24.0;;;20.0;;
21120;SDS011;12519;43.318;21.898;2022-11-24T16:44:25;22.0;;;18.0;;
21120;SDS011;12519;43.318;21.898;2022-11-24T16:49:01;22.0;;;18.0;;
21120;SDS011;12519;43.318;21.898;2022-11-24T16:53:39;20.0;;;16.0;;
21120;SDS011;12519;43.318;21.898;2022-11-24T16:58:15;20.0;;;16.0;;
21120;SDS011;12519;43.318;21.898;2022-11-24T17:02:52;18.0;;;14.0;;
21120;SDS011;12519;43.318;21.898;2022-11-24T17:07:28;18.0;;;14.0;;
21120;SDS011;12519;43.318;21.898;2022-11-24T17:12:05;15.0;;;13.0;;
21120;SDS011;12519;43.318;21.898;2022-11-24T17:16:41;15.0;;;13.0;;
21120;SDS011;12519;43.318;21.898;2022-11-24T17:21:22;15.0;;;13.0;;
21120;SDS011;12519;43.318;21.898;2022-11-24T17:26:06;14.0;;;13.0;;
21120;SDS011;12519;43.318;21.898;2022-11-24T17:30:48;14.0;;;13.0;;
21120;SDS011;12519;43.318;21.898;2022-11-24T17:35:25;14.0;;;13.0;;
21120;SDS011;12519;43.318;21.898;2022-11-24T17:40:03;14.0;;;13.0;;
21120;SDS011;12519;43.318;21.898;2022-11-24T17:44:43;13.0;;;12.0;;
21120;SDS011;12519;43.318;21.898;2022-11-24T17:49:20;13.0;;;12.0;;
21120;SDS011;12519;43.318;21.898;2022-11-24T17:53:57;12.0;;;11.0;;
21120;SDS011;12519;43.318;21.898;2022-11-24T17:58:34;12.0;;;11.0;;
21120;SDS011;12519;43.318;21.898;2022-11-24T18:03:11;14.0;;;13.0;;
21120;SDS011;12519;43.318;21.898;2022-11-24T18:07:47;14.0;;;13.0;;
21120;SDS011;12519;43.318;21.898;2022-11-24T18:12:24;16.0;;;15.0;;
21120;SDS011;12519;43.318;21.898;2022-11-24T18:17:00;16.0;;;15.0;;
21120;SDS011;12519;43.318;21.898;2022-11-24T18:21:38;16.0;;;15.0;;
21120;SDS011;12519;43.318;21.898;2022-11-24T18:26:18;17.0;;;15.0;;
21120;SDS011;12519;43.318;21.898;2022-11-24T18:31:01;17.0;;;15.0;;
21120;SDS011;12519;43.318;21.898;2022-11-24T18:35:41;18.0;;;15.0;;
21120;SDS011;12519;43.318;21.898;2022-11-24T18:40:19;18.0;;;15.0;;
21120;SDS011;12519;43.318;21.898;2022-11-24T18:44:56;16.0;;;14.0;;
21120;SDS011;12519;43.318;21.898;2022-11-24T18:49:33;16.0;;;14.0;;
21120;SDS011;12519;43.318;21.898;2022-11-24T18:54:09;14.0;;;12.0;;
21120;SDS011;12519;43.318;21.898;2022-11-24T18:58:46;14.0;;;12.0;;
21120;SDS011;12519;43.318;21.898;2022-11-24T19:03:27;12.0;;;10.0;;
21120;SDS011;12519;43.318;21.898;2022-11-24T19:08:04;12.0;;;10.0;;
21120;SDS011;12519;43.318;21.898;2022-11-24T19:12:41;9.0;;;9.0;;
21120;SDS011;12519;43.318;21.898;2022-11-24T19:17:18;9.0;;;9.0;;
21120;SDS011;12519;43.318;21.898;2022-11-24T19:21:55;11.0;;;11.0;;
21120;SDS011;12519;43.318;21.898;2022-11-24T19:26:32;11.0;;;11.0;;
21120;SDS011;12519;43.318;21.898;2022-11-24T19:31:14;11.0;;;11.0;;
21120;SDS011;12519;43.318;21.898;2022-11-24T19:36:04;13.0;;;13.0;;
21120;SDS011;12519;43.318;21.898;2022-11-24T19:40:47;13.0;;;13.0;;
21120;SDS011;12519;43.318;21.898;2022-11-24T19:45:23;14.0;;;12.0;;
21120;SDS011;12519;43.318;21.898;2022-11-24T19:49:59;14.0;;;12.0;;
21120;SDS011;12519;43.318;21.898;2022-11-24T19:54:36;16.0;;;12.0;;
21120;SDS011;12519;43.318;21.898;2022-11-24T19:59:13;16.0;;;12.0;;
21120;SDS011;12519;43.318;21.898;2022-11-24T20:03:56;17.0;;;12.0;;
21120;SDS011;12519;43.318;21.898;2022-11-24T20:08:37;17.0;;;12.0;;
21120;SDS011;12519;43.318;21.898;2022-11-24T20:13:16;18.0;;;13.0;;
21120;SDS011;12519;43.318;21.898;2022-11-24T20:17:53;18.0;;;13.0;;
21120;SDS011;12519;43.318;21.898;2022-11-24T20:22:29;18.0;;;13.0;;
21120;SDS011;12519;43.318;21.898;2022-11-24T20:27:05;18.0;;;13.0;;
21120;SDS011;12519;43.318;21.898;2022-11-24T20:31:46;18.0;;;13.0;;
21120;SDS011;12519;43.318;21.898;2022-11-24T20:36:31;17.0;;;13.0;;
21120;SDS011;12519;43.318;21.898;2022-11-24T20:41:17;17.0;;;13.0;;
21120;SDS011;12519;43.318;21.898;2022-11-24T20:46:03;20.0;;;16.0;;
21120;SDS011;12519;43.318;21.898;2022-11-24T20:50:41;20.0;;;16.0;;
21120;SDS011;12519;43.318;21.898;2022-11-24T20:55:17;23.0;;;20.0;;
21120;SDS011;12519;43.318;21.898;2022-11-24T20:59:54;23.0;;;20.0;;
21120;SDS011;12519;43.318;21.898;2022-11-24T21:04:30;25.0;;;21.0;;
21120;SDS011;12519;43.318;21.898;2022-11-24T21:09:09;25.0;;;21.0;;
21120;SDS011;12519;43.318;21.898;2022-11-24T21:13:47;27.0;;;22.0;;
21120;SDS011;12519;43.318;21.898;2022-11-24T21:18:24;27.0;;;22.0;;
21120;SDS011;12519;43.318;21.898;2022-11-24T21:23:01;21.0;;;18.0;;
21120;SDS011;12519;43.318;21.898;2022-11-24T21:27:39;21.0;;;18.0;;
21120;SDS011;12519;43.318;21.898;2022-11-24T21:32:15;15.0;;;15.0;;
21120;SDS011;12519;43.318;21.898;2022-11-24T21:36:52;15.0;;;15.0;;
21120;SDS011;12519;43.318;21.898;2022-11-24T21:41:32;15.0;;;15.0;;
21120;SDS011;12519;43.318;21.898;2022-11-24T21:46:10;20.0;;;19.0;;
21120;SDS011;12519;43.318;21.898;2022-11-24T21:50:49;20.0;;;19.0;;
21120;SDS011;12519;43.318;21.898;2022-11-24T21:55:26;26.0;;;23.0;;
21120;SDS011;12519;43.318;21.898;2022-11-24T22:00:05;26.0;;;23.0;;
21120;SDS011;12519;43.318;21.898;2022-11-24T22:04:44;32.0;;;28.0;;
21120;SDS011;12519;43.318;21.898;2022-11-24T22:09:20;32.0;;;28.0;;
21120;SDS011;12519;43.318;21.898;2022-11-24T22:13:57;37.0;;;32.0;;
21120;SDS011;12519;43.318;21.898;2022-11-24T22:18:37;37.0;;;32.0;;
21120;SDS011;12519;43.318;21.898;2022-11-24T22:23:17;38.0;;;32.0;;
21120;SDS011;12519;43.318;21.898;2022-11-24T22:27:53;38.0;;;32.0;;
21120;SDS011;12519;43.318;21.898;2022-11-24T22:32:29;39.0;;;31.0;;
21120;SDS011;12519;43.318;21.898;2022-11-24T22:37:06;39.0;;;31.0;;
21120;SDS011;12519;43.318;21.898;2022-11-24T22:41:43;39.0;;;31.0;;
21120;SDS011;12519;43.318;21.898;2022-11-24T22:46:24;33.0;;;28.0;;
21120;SDS011;12519;43.318;21.898;2022-11-24T22:51:11;33.0;;;28.0;;
21120;SDS011;12519;43.318;21.898;2022-11-24T22:55:55;27.0;;;25.0;;
21120;SDS011;12519;43.318;21.898;2022-11-24T23:00:39;27.0;;;25.0;;
21120;SDS011;12519;43.318;21.898;2022-11-24T23:05:15;26.0;;;24.0;;
21120;SDS011;12519;43.318;21.898;2022-11-24T23:09:52;26.0;;;24.0;;
21120;SDS011;12519;43.318;21.898;2022-11-24T23:14:29;25.0;;;22.0;;
21120;SDS011;12519;43.318;21.898;2022-11-24T23:19:07;25.0;;;22.0;;
21120;SDS011;12519;43.318;21.898;2022-11-24T23:23:48;22.0;;;20.0;;
21120;SDS011;12519;43.318;21.898;2022-11-24T23:28:26;22.0;;;20.0;;
21120;SDS011;12519;43.318;21.898;2022-11-24T23:33:03;19.0;;;17.0;;
21120;SDS011;12519;43.318;21.898;2022-11-24T23:37:39;19.0;;;17.0;;
21120;SDS011;12519;43.318;21.898;2022-11-24T23:42:15;19.0;;;17.0;;
21120;SDS011;12519;43.318;21.898;2022-11-24T23:46:52;18.0;;;15.0;;
21120;SDS011;12519;43.318;21.898;2022-11-24T23:51:31;18.0;;;15.0;;
21120;SDS011;12519;43.318;21.898;2022-11-24T23:56:14;16.0;;;13.0;;
